sensor_id;sensor_type;location;lat;lon;timestamp;pressure;altitude;pressure_sealevel;temperature;humidity
3142;BME280;1581;51.568;6.998;2024-03-29T00:01:25;98603.25;;;11.15;83.99
3142;BME280;1581;51.568;6.998;2024-03-29T00:03:51;98606.19;;;10.97;83.80
3142;BME280;1581;51.568;6.998;2024-03-29T00:06:18;98600.06;;;10.97;83.45
3142;BME280;1581;51.568;6.998;2024-03-29T00:08:46;98595.13;;;11.05;83.15
3142;BME280;1581;51.568;6.998;2024-03-29T00:11:12;98598.19;;;11.13;83.09
3142;BME280;1581;51.568;6.998;2024-03-29T00:13:38;98588.72;;;11.06;83.13
3142;BME280;1581;51.568;6.998;2024-03-29T00:16:05;98598.66;;;10.94;82.96
3142;BME280;1581;51.568;6.998;2024-03-29T00:18:31;98600.78;;;10.92;81.79
3142;BME280;1581;51.568;6.998;2024-03-29T00:20:58;98588.25;;;10.93;81.36
3142;BME280;1581;51.568;6.998;2024-03-29T00:23:24;98590.75;;;10.99;82.21
3142;BME280;1581;51.568;6.998;2024-03-29T00:25:52;98585.13;;;10.96;81.50
3142;BME280;1581;51.568;6.998;2024-03-29T00:28:18;98578.16;;;10.95;81.45
3142;BME280;1581;51.568;6.998;2024-03-29T00:30:44;98564.84;;;10.95;81.14
3142;BME280;1581;51.568;6.998;2024-03-29T00:33:10;98559.59;;;11.00;81.53
3142;BME280;1581;51.568;6.998;2024-03-29T00:35:37;98559.91;;;11.03;82.37
3142;BME280;1581;51.568;6.998;2024-03-29T00:38:03;98553.53;;;11.04;81.47
3142;BME280;1581;51.568;6.998;2024-03-29T00:40:30;98561.44;;;10.99;82.19
3142;BME280;1581;51.568;6.998;2024-03-29T00:42:57;98565.06;;;11.10;82.00
3142;BME280;1581;51.568;6.998;2024-03-29T00:45:23;98579.13;;;11.05;80.18
3142;BME280;1581;51.568;6.998;2024-03-29T00:47:50;98582.03;;;11.04;80.90
3142;BME280;1581;51.568;6.998;2024-03-29T00:50:16;98591.88;;;11.03;80.40
3142;BME280;1581;51.568;6.998;2024-03-29T00:52:42;98590.75;;;10.99;80.12
3142;BME280;1581;51.568;6.998;2024-03-29T00:55:08;98599.88;;;11.03;80.74
3142;BME280;1581;51.568;6.998;2024-03-29T00:57:35;98603.09;;;11.05;81.11
3142;BME280;1581;51.568;6.998;2024-03-29T01:00:03;98601.47;;;11.04;82.24
3142;BME280;1581;51.568;6.998;2024-03-29T01:02:30;98617.09;;;10.96;80.94
3142;BME280;1581;51.568;6.998;2024-03-29T01:04:56;98601.09;;;10.96;81.64
3142;BME280;1581;51.568;6.998;2024-03-29T01:07:23;98604.41;;;11.03;81.03
3142;BME280;1581;51.568;6.998;2024-03-29T01:09:49;98600.44;;;11.05;81.05
3142;BME280;1581;51.568;6.998;2024-03-29T01:12:16;98601.44;;;10.99;80.32
3142;BME280;1581;51.568;6.998;2024-03-29T01:14:42;98596.50;;;11.08;80.55
3142;BME280;1581;51.568;6.998;2024-03-29T01:17:10;98601.00;;;11.07;81.47
3142;BME280;1581;51.568;6.998;2024-03-29T01:19:36;98599.41;;;11.06;79.74
3142;BME280;1581;51.568;6.998;2024-03-29T01:22:02;98608.59;;;11.15;80.87
3142;BME280;1581;51.568;6.998;2024-03-29T01:24:29;98608.53;;;11.10;80.31
3142;BME280;1581;51.568;6.998;2024-03-29T01:26:55;98610.78;;;11.18;80.75
3142;BME280;1581;51.568;6.998;2024-03-29T01:29:21;98625.31;;;11.11;78.87
3142;BME280;1581;51.568;6.998;2024-03-29T01:31:48;98621.59;;;10.95;78.83
3142;BME280;1581;51.568;6.998;2024-03-29T01:34:15;98614.97;;;11.14;78.73
3142;BME280;1581;51.568;6.998;2024-03-29T01:36:41;98619.34;;;11.20;79.14
3142;BME280;1581;51.568;6.998;2024-03-29T01:39:08;98616.16;;;11.23;78.60
3142;BME280;1581;51.568;6.998;2024-03-29T01:41:34;98606.03;;;11.20;76.41
3142;BME280;1581;51.568;6.998;2024-03-29T01:44:00;98608.75;;;11.25;76.77
3142;BME280;1581;51.568;6.998;2024-03-29T01:46:28;98592.00;;;11.29;76.93
3142;BME280;1581;51.568;6.998;2024-03-29T01:48:55;98602.69;;;11.29;74.37
3142;BME280;1581;51.568;6.998;2024-03-29T01:51:24;98598.09;;;11.25;74.45
3142;BME280;1581;51.568;6.998;2024-03-29T01:53:53;98597.19;;;11.36;74.40
3142;BME280;1581;51.568;6.998;2024-03-29T01:56:22;98596.69;;;11.39;74.12
3142;BME280;1581;51.568;6.998;2024-03-29T01:58:51;98589.75;;;11.38;73.76
3142;BME280;1581;51.568;6.998;2024-03-29T02:01:19;98586.81;;;11.39;73.34
3142;BME280;1581;51.568;6.998;2024-03-29T02:03:47;98581.19;;;11.52;73.36
3142;BME280;1581;51.568;6.998;2024-03-29T02:06:14;98589.41;;;11.51;75.56
3142;BME280;1581;51.568;6.998;2024-03-29T02:08:43;98581.19;;;11.52;75.28
3142;BME280;1581;51.568;6.998;2024-03-29T02:11:10;98567.66;;;11.59;75.16
3142;BME280;1581;51.568;6.998;2024-03-29T02:13:37;98542.06;;;11.58;76.29
3142;BME280;1581;51.568;6.998;2024-03-29T02:16:06;98547.06;;;11.54;74.53
3142;BME280;1581;51.568;6.998;2024-03-29T02:18:33;98551.94;;;11.57;73.79
3142;BME280;1581;51.568;6.998;2024-03-29T02:21:00;98537.31;;;11.65;74.19
3142;BME280;1581;51.568;6.998;2024-03-29T02:23:29;98546.72;;;11.67;73.63
3142;BME280;1581;51.568;6.998;2024-03-29T02:25:59;98549.44;;;11.72;73.50
3142;BME280;1581;51.568;6.998;2024-03-29T02:28:27;98537.03;;;11.61;72.38
3142;BME280;1581;51.568;6.998;2024-03-29T02:30:54;98534.47;;;11.71;71.85
3142;BME280;1581;51.568;6.998;2024-03-29T02:33:22;98537.44;;;11.75;72.12
3142;BME280;1581;51.568;6.998;2024-03-29T02:35:50;98535.53;;;11.70;71.71
3142;BME280;1581;51.568;6.998;2024-03-29T02:38:16;98542.25;;;11.73;72.31
3142;BME280;1581;51.568;6.998;2024-03-29T02:40:43;98543.31;;;11.72;72.57
3142;BME280;1581;51.568;6.998;2024-03-29T02:43:12;98545.63;;;11.68;71.63
3142;BME280;1581;51.568;6.998;2024-03-29T02:45:39;98554.03;;;11.77;71.15
3142;BME280;1581;51.568;6.998;2024-03-29T02:48:06;98564.44;;;11.78;72.54
3142;BME280;1581;51.568;6.998;2024-03-29T02:50:33;98566.06;;;11.79;72.31
3142;BME280;1581;51.568;6.998;2024-03-29T02:52:59;98558.69;;;11.86;71.49
3142;BME280;1581;51.568;6.998;2024-03-29T02:55:27;98555.72;;;11.83;72.85
3142;BME280;1581;51.568;6.998;2024-03-29T02:57:53;98544.97;;;11.78;73.61
3142;BME280;1581;51.568;6.998;2024-03-29T03:00:21;98540.69;;;11.77;74.83
3142;BME280;1581;51.568;6.998;2024-03-29T03:02:48;98556.69;;;11.77;73.52
3142;BME280;1581;51.568;6.998;2024-03-29T03:05:15;98573.19;;;11.74;74.40
3142;BME280;1581;51.568;6.998;2024-03-29T03:07:41;98582.75;;;11.70;74.18
3142;BME280;1581;51.568;6.998;2024-03-29T03:10:26;98581.75;;;11.76;71.41
3142;BME280;1581;51.568;6.998;2024-03-29T03:13:10;98580.13;;;11.75;71.85
3142;BME280;1581;51.568;6.998;2024-03-29T03:15:39;98581.75;;;11.76;72.23
3142;BME280;1581;51.568;6.998;2024-03-29T03:18:06;98584.13;;;11.72;71.75
3142;BME280;1581;51.568;6.998;2024-03-29T03:20:32;98573.19;;;11.74;74.42
3142;BME280;1581;51.568;6.998;2024-03-29T03:23:00;98575.94;;;11.79;76.07
3142;BME280;1581;51.568;6.998;2024-03-29T03:25:27;98573.88;;;11.86;77.65
3142;BME280;1581;51.568;6.998;2024-03-29T03:27:55;98568.97;;;11.78;79.75
3142;BME280;1581;51.568;6.998;2024-03-29T03:30:21;98567.31;;;11.72;80.44
3142;BME280;1581;51.568;6.998;2024-03-29T03:32:50;98554.16;;;11.65;80.66
3142;BME280;1581;51.568;6.998;2024-03-29T03:35:17;98560.38;;;11.71;81.61
3142;BME280;1581;51.568;6.998;2024-03-29T03:37:45;98566.00;;;11.74;80.19
3142;BME280;1581;51.568;6.998;2024-03-29T03:40:11;98570.59;;;11.79;79.36
3142;BME280;1581;51.568;6.998;2024-03-29T03:42:38;98559.34;;;11.77;80.28
3142;BME280;1581;51.568;6.998;2024-03-29T03:45:05;98553.16;;;11.71;78.42
3142;BME280;1581;51.568;6.998;2024-03-29T03:47:32;98567.06;;;11.73;79.28
3142;BME280;1581;51.568;6.998;2024-03-29T03:50:00;98563.03;;;11.71;78.96
3142;BME280;1581;51.568;6.998;2024-03-29T03:52:27;98556.13;;;11.75;80.02
3142;BME280;1581;51.568;6.998;2024-03-29T03:54:53;98564.38;;;11.73;81.12
3142;BME280;1581;51.568;6.998;2024-03-29T03:57:20;98549.69;;;11.71;81.89
3142;BME280;1581;51.568;6.998;2024-03-29T03:59:49;98548.94;;;11.75;84.13
3142;BME280;1581;51.568;6.998;2024-03-29T04:02:16;98551.31;;;11.72;84.70
3142;BME280;1581;51.568;6.998;2024-03-29T04:04:42;98548.38;;;11.73;86.08
3142;BME280;1581;51.568;6.998;2024-03-29T04:07:10;98565.69;;;11.71;86.79
3142;BME280;1581;51.568;6.998;2024-03-29T04:09:37;98566.66;;;11.65;87.60
3142;BME280;1581;51.568;6.998;2024-03-29T04:12:04;98567.41;;;11.60;89.08
3142;BME280;1581;51.568;6.998;2024-03-29T04:14:30;98572.75;;;11.60;90.31
3142;BME280;1581;51.568;6.998;2024-03-29T04:16:58;98583.03;;;11.52;91.32
3142;BME280;1581;51.568;6.998;2024-03-29T04:19:24;98583.38;;;11.55;92.21
3142;BME280;1581;51.568;6.998;2024-03-29T04:21:52;98573.75;;;11.54;94.20
3142;BME280;1581;51.568;6.998;2024-03-29T04:24:20;98573.63;;;11.49;94.81
3142;BME280;1581;51.568;6.998;2024-03-29T04:26:47;98566.38;;;11.45;95.98
3142;BME280;1581;51.568;6.998;2024-03-29T04:29:13;98580.75;;;11.44;98.24
3142;BME280;1581;51.568;6.998;2024-03-29T04:31:41;98577.06;;;11.28;100.00
3142;BME280;1581;51.568;6.998;2024-03-29T04:34:07;98574.41;;;11.28;100.00
3142;BME280;1581;51.568;6.998;2024-03-29T04:36:34;98598.41;;;11.28;100.00
3142;BME280;1581;51.568;6.998;2024-03-29T04:39:00;98598.03;;;11.20;100.00
3142;BME280;1581;51.568;6.998;2024-03-29T04:41:28;98600.69;;;11.20;100.00
3142;BME280;1581;51.568;6.998;2024-03-29T04:43:59;98597.88;;;11.10;100.00
3142;BME280;1581;51.568;6.998;2024-03-29T04:46:29;98597.56;;;11.07;100.00
3142;BME280;1581;51.568;6.998;2024-03-29T04:48:57;98600.44;;;11.05;100.00
3142;BME280;1581;51.568;6.998;2024-03-29T04:51:25;98605.59;;;10.95;100.00
3142;BME280;1581;51.568;6.998;2024-03-29T04:53:52;98605.94;;;10.99;100.00
3142;BME280;1581;51.568;6.998;2024-03-29T04:56:19;98602.63;;;10.92;100.00
3142;BME280;1581;51.568;6.998;2024-03-29T04:58:48;98598.34;;;10.91;100.00
3142;BME280;1581;51.568;6.998;2024-03-29T05:01:15;98595.84;;;10.84;100.00
3142;BME280;1581;51.568;6.998;2024-03-29T05:03:42;98596.97;;;10.88;100.00
3142;BME280;1581;51.568;6.998;2024-03-29T05:06:09;98598.84;;;10.88;100.00
3142;BME280;1581;51.568;6.998;2024-03-29T05:08:36;98601.66;;;10.81;100.00
3142;BME280;1581;51.568;6.998;2024-03-29T05:11:04;98606.00;;;10.71;100.00
3142;BME280;1581;51.568;6.998;2024-03-29T05:13:31;98605.78;;;10.72;100.00
3142;BME280;1581;51.568;6.998;2024-03-29T05:15:59;98592.13;;;10.69;100.00
3142;BME280;1581;51.568;6.998;2024-03-29T05:18:27;98590.91;;;10.60;100.00
3142;BME280;1581;51.568;6.998;2024-03-29T05:20:54;98592.03;;;10.64;100.00
3142;BME280;1581;51.568;6.998;2024-03-29T05:23:21;98587.13;;;10.56;100.00
3142;BME280;1581;51.568;6.998;2024-03-29T05:25:48;98584.44;;;10.56;100.00
3142;BME280;1581;51.568;6.998;2024-03-29T05:28:15;98586.72;;;10.64;100.00
3142;BME280;1581;51.568;6.998;2024-03-29T05:30:43;98589.84;;;10.61;100.00
3142;BME280;1581;51.568;6.998;2024-03-29T05:33:12;98586.53;;;10.54;100.00
3142;BME280;1581;51.568;6.998;2024-03-29T05:35:39;98579.69;;;10.58;100.00
3142;BME280;1581;51.568;6.998;2024-03-29T05:38:06;98576.22;;;10.57;100.00
3142;BME280;1581;51.568;6.998;2024-03-29T05:40:33;98576.78;;;10.59;100.00
3142;BME280;1581;51.568;6.998;2024-03-29T05:43:00;98566.84;;;10.55;100.00
3142;BME280;1581;51.568;6.998;2024-03-29T05:45:29;98549.25;;;10.54;100.00
3142;BME280;1581;51.568;6.998;2024-03-29T05:47:58;98557.00;;;10.55;100.00
3142;BME280;1581;51.568;6.998;2024-03-29T05:50:27;98559.34;;;10.52;100.00
3142;BME280;1581;51.568;6.998;2024-03-29T05:52:54;98561.94;;;10.47;100.00
3142;BME280;1581;51.568;6.998;2024-03-29T05:55:22;98572.66;;;10.52;100.00
3142;BME280;1581;51.568;6.998;2024-03-29T05:57:49;98557.41;;;10.47;100.00
3142;BME280;1581;51.568;6.998;2024-03-29T06:00:17;98549.41;;;10.47;100.00
3142;BME280;1581;51.568;6.998;2024-03-29T06:02:44;98542.25;;;10.48;100.00
3142;BME280;1581;51.568;6.998;2024-03-29T06:05:13;98545.28;;;10.40;100.00
3142;BME280;1581;51.568;6.998;2024-03-29T06:07:42;98556.19;;;10.38;100.00
3142;BME280;1581;51.568;6.998;2024-03-29T06:10:09;98556.19;;;10.38;100.00
3142;BME280;1581;51.568;6.998;2024-03-29T06:12:37;98556.19;;;10.38;100.00
3142;BME280;1581;51.568;6.998;2024-03-29T06:15:06;98550.59;;;10.40;100.00
3142;BME280;1581;51.568;6.998;2024-03-29T06:17:51;98547.03;;;10.34;100.00
3142;BME280;1581;51.568;6.998;2024-03-29T06:20:18;98542.56;;;10.35;100.00
3142;BME280;1581;51.568;6.998;2024-03-29T06:22:47;98547.78;;;10.30;100.00
3142;BME280;1581;51.568;6.998;2024-03-29T06:25:14;98548.81;;;10.29;100.00
3142;BME280;1581;51.568;6.998;2024-03-29T06:27:41;98530.19;;;10.29;100.00
3142;BME280;1581;51.568;6.998;2024-03-29T06:30:14;98536.25;;;10.41;100.00
3142;BME280;1581;51.568;6.998;2024-03-29T06:32:43;98538.75;;;10.47;100.00
3142;BME280;1581;51.568;6.998;2024-03-29T06:35:11;98547.97;;;10.56;100.00
3142;BME280;1581;51.568;6.998;2024-03-29T06:37:38;98536.59;;;10.61;100.00
3142;BME280;1581;51.568;6.998;2024-03-29T06:40:09;98550.00;;;10.66;100.00
3142;BME280;1581;51.568;6.998;2024-03-29T06:42:36;98536.44;;;10.67;100.00
3142;BME280;1581;51.568;6.998;2024-03-29T06:45:04;98537.97;;;10.80;100.00
3142;BME280;1581;51.568;6.998;2024-03-29T06:47:32;98535.06;;;10.81;100.00
3142;BME280;1581;51.568;6.998;2024-03-29T06:49:59;98522.94;;;10.90;100.00
3142;BME280;1581;51.568;6.998;2024-03-29T06:52:27;98527.88;;;10.82;100.00
3142;BME280;1581;51.568;6.998;2024-03-29T06:54:54;98526.34;;;10.86;100.00
3142;BME280;1581;51.568;6.998;2024-03-29T06:57:23;98526.91;;;10.88;100.00
3142;BME280;1581;51.568;6.998;2024-03-29T06:59:51;98520.28;;;10.90;100.00
3142;BME280;1581;51.568;6.998;2024-03-29T07:02:22;98529.59;;;10.88;100.00
3142;BME280;1581;51.568;6.998;2024-03-29T07:04:49;98516.75;;;10.85;100.00
3142;BME280;1581;51.568;6.998;2024-03-29T07:07:16;98516.47;;;10.86;100.00
3142;BME280;1581;51.568;6.998;2024-03-29T07:09:43;98517.84;;;10.89;100.00
3142;BME280;1581;51.568;6.998;2024-03-29T07:12:11;98523.38;;;10.82;100.00
3142;BME280;1581;51.568;6.998;2024-03-29T07:14:39;98523.13;;;10.84;100.00
3142;BME280;1581;51.568;6.998;2024-03-29T07:17:06;98523.19;;;10.89;100.00
3142;BME280;1581;51.568;6.998;2024-03-29T07:19:34;98517.19;;;10.98;100.00
3142;BME280;1581;51.568;6.998;2024-03-29T07:22:01;98523.53;;;10.92;100.00
3142;BME280;1581;51.568;6.998;2024-03-29T07:24:28;98535.06;;;10.98;100.00
3142;BME280;1581;51.568;6.998;2024-03-29T07:26:55;98538.28;;;10.83;100.00
3142;BME280;1581;51.568;6.998;2024-03-29T07:29:23;98533.38;;;10.75;100.00
3142;BME280;1581;51.568;6.998;2024-03-29T07:31:51;98533.34;;;10.92;100.00
3142;BME280;1581;51.568;6.998;2024-03-29T07:34:19;98525.69;;;10.95;100.00
3142;BME280;1581;51.568;6.998;2024-03-29T07:36:47;98522.84;;;11.02;100.00
3142;BME280;1581;51.568;6.998;2024-03-29T07:39:14;98534.72;;;10.94;100.00
3142;BME280;1581;51.568;6.998;2024-03-29T07:41:41;98539.00;;;10.95;100.00
3142;BME280;1581;51.568;6.998;2024-03-29T07:44:09;98548.88;;;10.95;100.00
3142;BME280;1581;51.568;6.998;2024-03-29T07:46:37;98554.34;;;11.05;100.00
3142;BME280;1581;51.568;6.998;2024-03-29T07:49:07;98570.72;;;11.13;100.00
3142;BME280;1581;51.568;6.998;2024-03-29T07:51:34;98572.16;;;11.20;100.00
3142;BME280;1581;51.568;6.998;2024-03-29T07:54:02;98570.94;;;11.28;100.00
3142;BME280;1581;51.568;6.998;2024-03-29T07:56:29;98577.56;;;11.42;100.00
3142;BME280;1581;51.568;6.998;2024-03-29T07:58:57;98584.84;;;11.68;100.00
3142;BME280;1581;51.568;6.998;2024-03-29T08:01:24;98583.09;;;11.78;100.00
3142;BME280;1581;51.568;6.998;2024-03-29T08:03:52;98594.03;;;11.77;100.00
3142;BME280;1581;51.568;6.998;2024-03-29T08:06:21;98590.63;;;11.81;100.00
3142;BME280;1581;51.568;6.998;2024-03-29T08:08:49;98582.94;;;11.85;100.00
3142;BME280;1581;51.568;6.998;2024-03-29T08:11:17;98574.38;;;12.04;100.00
3142;BME280;1581;51.568;6.998;2024-03-29T08:13:44;98576.75;;;12.01;100.00
3142;BME280;1581;51.568;6.998;2024-03-29T08:16:11;98575.88;;;11.95;100.00
3142;BME280;1581;51.568;6.998;2024-03-29T08:18:39;98586.03;;;11.98;100.00
3142;BME280;1581;51.568;6.998;2024-03-29T08:21:06;98581.63;;;12.08;100.00
3142;BME280;1581;51.568;6.998;2024-03-29T08:23:39;98579.00;;;12.40;100.00
3142;BME280;1581;51.568;6.998;2024-03-29T08:26:07;98583.69;;;12.54;100.00
3142;BME280;1581;51.568;6.998;2024-03-29T08:28:34;98575.34;;;12.72;100.00
3142;BME280;1581;51.568;6.998;2024-03-29T08:31:07;98571.50;;;13.26;100.00
3142;BME280;1581;51.568;6.998;2024-03-29T08:33:35;98576.84;;;13.72;100.00
3142;BME280;1581;51.568;6.998;2024-03-29T08:36:04;98571.38;;;13.52;100.00
3142;BME280;1581;51.568;6.998;2024-03-29T08:38:32;98579.13;;;13.54;100.00
3142;BME280;1581;51.568;6.998;2024-03-29T08:41:01;98592.09;;;13.30;100.00
3142;BME280;1581;51.568;6.998;2024-03-29T08:43:28;98605.47;;;13.25;100.00
3142;BME280;1581;51.568;6.998;2024-03-29T08:45:58;98598.59;;;13.39;100.00
3142;BME280;1581;51.568;6.998;2024-03-29T08:48:26;98601.59;;;13.53;100.00
3142;BME280;1581;51.568;6.998;2024-03-29T08:50:54;98598.06;;;13.42;100.00
3142;BME280;1581;51.568;6.998;2024-03-29T08:53:21;98599.56;;;13.23;100.00
3142;BME280;1581;51.568;6.998;2024-03-29T08:55:49;98601.94;;;13.20;100.00
3142;BME280;1581;51.568;6.998;2024-03-29T08:58:17;98609.97;;;12.88;100.00
3142;BME280;1581;51.568;6.998;2024-03-29T09:00:53;98616.72;;;12.70;100.00
3142;BME280;1581;51.568;6.998;2024-03-29T09:03:21;98615.22;;;12.52;100.00
3142;BME280;1581;51.568;6.998;2024-03-29T09:05:48;98625.84;;;12.47;100.00
3142;BME280;1581;51.568;6.998;2024-03-29T09:08:16;98620.94;;;12.39;100.00
3142;BME280;1581;51.568;6.998;2024-03-29T09:10:44;98613.16;;;12.38;100.00
3142;BME280;1581;51.568;6.998;2024-03-29T09:13:11;98621.00;;;12.44;100.00
3142;BME280;1581;51.568;6.998;2024-03-29T09:15:45;98612.28;;;12.54;100.00
3142;BME280;1581;51.568;6.998;2024-03-29T09:18:13;98622.31;;;12.68;100.00
3142;BME280;1581;51.568;6.998;2024-03-29T09:20:56;98622.97;;;12.54;100.00
3142;BME280;1581;51.568;6.998;2024-03-29T09:23:26;98640.34;;;12.56;100.00
3142;BME280;1581;51.568;6.998;2024-03-29T09:25:54;98637.84;;;12.45;100.00
3142;BME280;1581;51.568;6.998;2024-03-29T09:28:22;98627.75;;;12.52;100.00
3142;BME280;1581;51.568;6.998;2024-03-29T09:30:57;98639.50;;;12.51;100.00
3142;BME280;1581;51.568;6.998;2024-03-29T09:33:24;98635.47;;;12.48;100.00
3142;BME280;1581;51.568;6.998;2024-03-29T09:35:55;98643.94;;;12.67;100.00
3142;BME280;1581;51.568;6.998;2024-03-29T09:38:25;98646.47;;;13.04;100.00
3142;BME280;1581;51.568;6.998;2024-03-29T09:41:00;98646.34;;;13.21;100.00
3142;BME280;1581;51.568;6.998;2024-03-29T09:43:30;98643.81;;;13.09;100.00
3142;BME280;1581;51.568;6.998;2024-03-29T09:45:59;98644.09;;;13.08;100.00
3142;BME280;1581;51.568;6.998;2024-03-29T09:48:28;98649.38;;;13.03;100.00
3142;BME280;1581;51.568;6.998;2024-03-29T09:51:03;98645.88;;;12.97;100.00
3142;BME280;1581;51.568;6.998;2024-03-29T09:53:33;98633.78;;;12.90;100.00
3142;BME280;1581;51.568;6.998;2024-03-29T09:56:03;98640.28;;;12.99;100.00
3142;BME280;1581;51.568;6.998;2024-03-29T09:58:31;98635.13;;;12.92;100.00
3142;BME280;1581;51.568;6.998;2024-03-29T10:01:00;98630.59;;;12.93;100.00
3142;BME280;1581;51.568;6.998;2024-03-29T10:03:29;98628.72;;;13.25;100.00
3142;BME280;1581;51.568;6.998;2024-03-29T10:05:57;98631.81;;;13.48;100.00
3142;BME280;1581;51.568;6.998;2024-03-29T10:08:26;98638.06;;;13.59;100.00
3142;BME280;1581;51.568;6.998;2024-03-29T10:10:54;98642.25;;;13.86;100.00
3142;BME280;1581;51.568;6.998;2024-03-29T10:13:22;98640.00;;;14.19;100.00
3142;BME280;1581;51.568;6.998;2024-03-29T10:15:50;98645.50;;;14.59;100.00
3142;BME280;1581;51.568;6.998;2024-03-29T10:18:20;98655.16;;;14.75;100.00
3142;BME280;1581;51.568;6.998;2024-03-29T10:20:58;98665.88;;;14.75;100.00
3142;BME280;1581;51.568;6.998;2024-03-29T10:23:25;98667.50;;;14.76;100.00
3142;BME280;1581;51.568;6.998;2024-03-29T10:25:52;98671.28;;;14.80;100.00
3142;BME280;1581;51.568;6.998;2024-03-29T10:28:20;98675.28;;;14.82;100.00
3142;BME280;1581;51.568;6.998;2024-03-29T10:30:48;98685.28;;;15.02;100.00
3142;BME280;1581;51.568;6.998;2024-03-29T10:33:16;98693.31;;;15.02;100.00
3142;BME280;1581;51.568;6.998;2024-03-29T10:35:45;98691.19;;;15.44;100.00
3142;BME280;1581;51.568;6.998;2024-03-29T10:38:13;98683.97;;;15.64;100.00
3142;BME280;1581;51.568;6.998;2024-03-29T10:40:41;98676.97;;;15.63;100.00
3142;BME280;1581;51.568;6.998;2024-03-29T10:43:09;98678.59;;;15.24;100.00
3142;BME280;1581;51.568;6.998;2024-03-29T10:45:38;98682.03;;;15.05;100.00
3142;BME280;1581;51.568;6.998;2024-03-29T10:48:07;98674.53;;;15.02;100.00
3142;BME280;1581;51.568;6.998;2024-03-29T10:50:39;98676.13;;;14.88;100.00
3142;BME280;1581;51.568;6.998;2024-03-29T10:53:10;98669.63;;;14.69;100.00
3142;BME280;1581;51.568;6.998;2024-03-29T10:55:38;98668.56;;;14.70;100.00
3142;BME280;1581;51.568;6.998;2024-03-29T10:58:05;98669.66;;;14.79;100.00
3142;BME280;1581;51.568;6.998;2024-03-29T11:00:35;98662.66;;;14.73;100.00
3142;BME280;1581;51.568;6.998;2024-03-29T11:03:15;98665.34;;;14.68;100.00
3142;BME280;1581;51.568;6.998;2024-03-29T11:05:47;98662.97;;;14.76;100.00
3142;BME280;1581;51.568;6.998;2024-03-29T11:08:23;98664.06;;;14.95;100.00
3142;BME280;1581;51.568;6.998;2024-03-29T11:10:53;98654.66;;;15.23;100.00
3142;BME280;1581;51.568;6.998;2024-03-29T11:13:29;98649.00;;;15.84;100.00
3142;BME280;1581;51.568;6.998;2024-03-29T11:16:00;98650.47;;;16.35;100.00
3142;BME280;1581;51.568;6.998;2024-03-29T11:18:28;98650.03;;;16.71;100.00
3142;BME280;1581;51.568;6.998;2024-03-29T11:21:00;98663.00;;;17.02;100.00
3142;BME280;1581;51.568;6.998;2024-03-29T11:23:33;98670.38;;;17.25;100.00
3142;BME280;1581;51.568;6.998;2024-03-29T11:26:01;98672.78;;;17.31;100.00
3142;BME280;1581;51.568;6.998;2024-03-29T11:28:31;98683.19;;;17.43;100.00
3142;BME280;1581;51.568;6.998;2024-03-29T11:31:03;98696.72;;;17.33;100.00
3142;BME280;1581;51.568;6.998;2024-03-29T11:33:33;98692.47;;;17.55;100.00
3142;BME280;1581;51.568;6.998;2024-03-29T11:36:09;98698.31;;;17.67;100.00
3142;BME280;1581;51.568;6.998;2024-03-29T11:38:39;98696.78;;;17.56;98.85
3142;BME280;1581;51.568;6.998;2024-03-29T11:41:13;98695.72;;;17.57;99.56
3142;BME280;1581;51.568;6.998;2024-03-29T11:43:41;98690.38;;;17.81;98.46
3142;BME280;1581;51.568;6.998;2024-03-29T11:46:11;98684.88;;;17.91;98.13
3142;BME280;1581;51.568;6.998;2024-03-29T11:48:39;98684.38;;;18.12;96.12
3142;BME280;1581;51.568;6.998;2024-03-29T11:51:09;98677.00;;;17.99;92.53
3142;BME280;1581;51.568;6.998;2024-03-29T11:53:38;98667.91;;;17.90;94.33
3142;BME280;1581;51.568;6.998;2024-03-29T11:56:07;98683.38;;;17.51;94.52
3142;BME280;1581;51.568;6.998;2024-03-29T11:58:34;98691.63;;;17.31;95.31
3142;BME280;1581;51.568;6.998;2024-03-29T12:01:03;98692.16;;;16.85;96.26
3142;BME280;1581;51.568;6.998;2024-03-29T12:03:32;98708.25;;;16.32;98.50
3142;BME280;1581;51.568;6.998;2024-03-29T12:06:01;98714.50;;;15.98;100.00
3142;BME280;1581;51.568;6.998;2024-03-29T12:08:33;98729.28;;;15.95;100.00
3142;BME280;1581;51.568;6.998;2024-03-29T12:11:04;98722.22;;;16.24;100.00
3142;BME280;1581;51.568;6.998;2024-03-29T12:13:39;98739.19;;;16.20;100.00
3142;BME280;1581;51.568;6.998;2024-03-29T12:16:10;98732.78;;;16.06;100.00
3142;BME280;1581;51.568;6.998;2024-03-29T12:18:41;98733.56;;;16.06;100.00
3142;BME280;1581;51.568;6.998;2024-03-29T12:21:10;98744.06;;;16.03;100.00
3142;BME280;1581;51.568;6.998;2024-03-29T12:23:47;98752.09;;;16.08;100.00
3142;BME280;1581;51.568;6.998;2024-03-29T12:26:17;98746.16;;;16.26;100.00
3142;BME280;1581;51.568;6.998;2024-03-29T12:28:49;98739.19;;;16.25;100.00
3142;BME280;1581;51.568;6.998;2024-03-29T12:31:17;98739.97;;;16.40;100.00
3142;BME280;1581;51.568;6.998;2024-03-29T12:33:52;98732.09;;;16.58;100.00
3142;BME280;1581;51.568;6.998;2024-03-29T12:36:23;98740.97;;;16.54;100.00
3142;BME280;1581;51.568;6.998;2024-03-29T12:38:55;98738.88;;;16.51;100.00
3142;BME280;1581;51.568;6.998;2024-03-29T12:41:26;98744.84;;;16.91;98.97
3142;BME280;1581;51.568;6.998;2024-03-29T12:43:54;98745.63;;;17.02;96.43
3142;BME280;1581;51.568;6.998;2024-03-29T12:46:21;98743.50;;;16.94;96.25
3142;BME280;1581;51.568;6.998;2024-03-29T12:48:58;98744.22;;;17.09;95.50
3142;BME280;1581;51.568;6.998;2024-03-29T12:51:26;98736.81;;;17.34;93.45
3142;BME280;1581;51.568;6.998;2024-03-29T12:53:54;98743.63;;;17.60;91.27
3142;BME280;1581;51.568;6.998;2024-03-29T12:56:27;98736.50;;;18.03;87.57
3142;BME280;1581;51.568;6.998;2024-03-29T12:58:54;98742.19;;;18.29;85.50
3142;BME280;1581;51.568;6.998;2024-03-29T13:01:22;98750.38;;;18.43;83.52
3142;BME280;1581;51.568;6.998;2024-03-29T13:03:49;98750.16;;;18.86;81.02
3142;BME280;1581;51.568;6.998;2024-03-29T13:06:17;98749.50;;;18.94;77.73
3142;BME280;1581;51.568;6.998;2024-03-29T13:08:44;98747.31;;;18.96;74.64
3142;BME280;1581;51.568;6.998;2024-03-29T13:11:11;98761.97;;;19.50;73.74
3142;BME280;1581;51.568;6.998;2024-03-29T13:13:40;98763.50;;;19.88;70.36
3142;BME280;1581;51.568;6.998;2024-03-29T13:16:08;98750.53;;;19.53;63.60
3142;BME280;1581;51.568;6.998;2024-03-29T13:18:35;98755.16;;;19.71;62.18
3142;BME280;1581;51.568;6.998;2024-03-29T13:21:03;98763.41;;;19.93;61.77